Time;durP1;ratioP1;P1;durP2;ratioP2;P2;SDS_P1;SDS_P2;PMS_P1;PMS_P2;Temp;Humidity;BMP_temperature;BMP_pressure;BME280_temperature;BME280_humidity;BME280_pressure;Samples;Min_cycle;Max_cycle;Signal;HPM_P1;HPM_P2
2020/12/29 00:02:12;;;;;;;94.85;37.40;;;1.00;91.00;;;;;;5056728;28;20025;-90
2020/12/29 00:04:38;;;;;;;104.80;41.17;;;0.90;90.80;;;;;;5056146;28;20025;-90
2020/12/29 00:07:04;;;;;;;106.78;40.03;;;0.90;90.80;;;;;;5055973;28;20032;-90
2020/12/29 00:09:30;;;;;;;104.15;41.17;;;0.90;90.90;;;;;;5055942;28;20025;-91
2020/12/29 00:11:56;;;;;;;111.25;42.60;;;0.90;90.80;;;;;;5055890;28;20116;-89
2020/12/29 00:14:23;;;;;;;103.95;41.47;;;0.90;90.90;;;;;;5056041;28;20036;-90
2020/12/29 00:16:49;;;;;;;88.07;35.90;;;0.80;90.90;;;;;;5055743;28;20421;-89
2020/12/29 00:19:19;;;;;;;95.72;39.63;;;0.90;90.90;;;;;;5055352;28;20021;-90
2020/12/29 00:21:44;;;;;;;99.10;37.55;;;0.90;91.00;;;;;;5055908;28;20025;-90
2020/12/29 00:24:11;;;;;;;90.18;36.22;;;0.90;90.90;;;;;;5054874;28;20031;-90
2020/12/29 00:26:36;;;;;;;89.68;35.33;;;0.90;90.90;;;;;;5055419;28;20025;-89
2020/12/29 00:29:03;;;;;;;80.40;33.47;;;0.90;90.90;;;;;;5055445;28;20182;-89
2020/12/29 00:31:29;;;;;;;83.50;34.05;;;0.90;90.80;;;;;;5055636;28;20112;-89
2020/12/29 00:33:56;;;;;;;72.82;30.83;;;0.90;90.80;;;;;;5055709;28;20102;-90
2020/12/29 00:36:23;;;;;;;79.95;33.33;;;0.90;90.80;;;;;;5055138;28;20073;-89
2020/12/29 00:38:48;;;;;;;86.30;35.67;;;0.90;90.80;;;;;;5055614;28;20479;-88
2020/12/29 00:41:14;;;;;;;86.75;32.45;;;0.90;90.90;;;;;;5055404;28;20032;-88
2020/12/29 00:43:41;;;;;;;88.00;32.72;;;0.90;90.90;;;;;;5055315;28;20071;-89
2020/12/29 00:46:12;;;;;;;79.20;33.78;;;0.90;90.80;;;;;;5056501;28;20017;-89
2020/12/29 00:48:38;;;;;;;81.50;32.65;;;0.90;90.90;;;;;;5055006;28;20483;-87
2020/12/29 00:51:16;;;;;;;85.53;35.75;;;0.90;90.90;;;;;;5056230;28;20090;-88
2020/12/29 00:53:42;;;;;;;86.13;32.88;;;0.90;90.80;;;;;;5057189;28;20056;-87
2020/12/29 00:56:09;;;;;;;96.22;34.75;;;0.90;90.80;;;;;;5056046;28;20040;-89
2020/12/29 00:58:36;;;;;;;89.10;32.40;;;0.90;90.80;;;;;;5055106;28;20083;-88
2020/12/29 01:01:06;;;;;;;88.28;30.83;;;0.90;90.80;;;;;;5056296;28;20029;-90
2020/12/29 01:03:32;;;;;;;87.90;33.53;;;0.90;91.00;;;;;;5054586;28;20060;-87
2020/12/29 01:05:58;;;;;;;82.28;33.13;;;0.80;91.10;;;;;;5054417;28;20427;-86
2020/12/29 01:08:24;;;;;;;84.18;31.48;;;0.80;91.10;;;;;;5054448;28;20044;-87
2020/12/29 01:10:58;;;;;;;74.25;29.15;;;0.90;91.00;;;;;;5054293;28;20108;-88
2020/12/29 01:13:24;;;;;;;88.65;32.70;;;0.90;91.00;;;;;;5055600;28;20025;-88
2020/12/29 01:15:51;;;;;;;90.95;34.78;;;0.80;91.00;;;;;;5054363;28;20025;-88
2020/12/29 01:18:17;;;;;;;83.07;31.60;;;0.80;91.00;;;;;;5055402;28;20021;-87
2020/12/29 01:20:42;;;;;;;83.97;32.17;;;0.80;91.00;;;;;;5054123;28;20028;-87
2020/12/29 01:23:08;;;;;;;98.55;34.22;;;0.80;91.10;;;;;;5055664;28;20519;-86
2020/12/29 01:25:34;;;;;;;89.75;32.72;;;0.80;91.10;;;;;;5054071;28;20114;-87
2020/12/29 01:28:00;;;;;;;95.85;34.00;;;0.80;91.10;;;;;;5054024;28;20033;-85
2020/12/29 01:30:26;;;;;;;90.22;34.33;;;0.80;91.10;;;;;;5053906;28;20029;-88
2020/12/29 01:32:51;;;;;;;103.82;36.70;;;0.80;91.20;;;;;;5053676;28;20090;-85
2020/12/29 01:35:17;;;;;;;122.20;40.55;;;0.80;91.20;;;;;;5053422;28;20028;-86
2020/12/29 01:37:44;;;;;;;113.07;38.00;;;0.80;91.30;;;;;;5053609;28;20068;-84
2020/12/29 01:40:11;;;;;;;109.93;37.70;;;0.70;91.30;;;;;;5053757;28;20131;-85
2020/12/29 01:42:38;;;;;;;103.57;38.60;;;0.70;91.40;;;;;;5053495;28;20048;-85
2020/12/29 01:45:09;;;;;;;112.05;37.13;;;0.70;91.40;;;;;;5053374;28;20021;-84
2020/12/29 01:47:38;;;;;;;114.80;38.20;;;0.70;91.40;;;;;;5054455;28;20024;-83
2020/12/29 01:50:14;;;;;;;113.15;37.92;;;0.70;91.40;;;;;;5053115;28;20024;-83
2020/12/29 01:52:40;;;;;;;110.18;37.60;;;0.70;91.40;;;;;;5054474;28;20025;-81
2020/12/29 01:55:08;;;;;;;137.73;41.80;;;0.70;91.40;;;;;;5052990;28;20079;-85
2020/12/29 01:57:35;;;;;;;122.97;39.40;;;0.70;91.60;;;;;;5052956;28;20466;-85
2020/12/29 02:00:09;;;;;;;132.20;39.75;;;0.60;91.80;;;;;;5053213;28;20154;-83
2020/12/29 02:02:35;;;;;;;117.82;37.63;;;0.70;91.80;;;;;;5053032;28;20489;-84
2020/12/29 02:05:02;;;;;;;130.13;41.72;;;0.60;91.80;;;;;;5054400;28;20029;-83
2020/12/29 02:07:28;;;;;;;145.73;44.13;;;0.70;91.80;;;;;;5052967;28;20138;-87
2020/12/29 02:09:54;;;;;;;149.10;44.08;;;0.60;91.80;;;;;;5053036;28;20025;-85
2020/12/29 02:12:22;;;;;;;138.23;42.25;;;0.60;91.90;;;;;;5054083;28;20074;-85
2020/12/29 02:14:48;;;;;;;132.65;42.70;;;0.70;91.90;;;;;;5054447;28;20021;-84
2020/12/29 02:17:13;;;;;;;139.15;43.58;;;0.60;91.80;;;;;;5052744;28;20033;-84
2020/12/29 02:19:39;;;;;;;145.50;47.53;;;0.70;91.80;;;;;;5052863;28;20028;-83
2020/12/29 02:22:05;;;;;;;148.02;47.20;;;0.60;91.90;;;;;;5054100;28;20031;-89
2020/12/29 02:24:30;;;;;;;148.70;46.03;;;0.70;91.80;;;;;;5052268;28;20059;-83
2020/12/29 02:26:56;;;;;;;154.57;46.90;;;0.70;91.80;;;;;;5052730;28;20035;-84
2020/12/29 02:29:22;;;;;;;150.93;47.78;;;0.70;91.90;;;;;;5054137;28;20088;-82
2020/12/29 02:31:47;;;;;;;170.60;51.88;;;0.70;92.10;;;;;;5053824;28;20063;-84
2020/12/29 02:34:13;;;;;;;150.82;48.30;;;0.60;91.80;;;;;;5052509;28;20031;-83
2020/12/29 02:36:39;;;;;;;150.60;47.47;;;0.70;91.90;;;;;;5053761;28;20044;-82
2020/12/29 02:39:04;;;;;;;180.00;53.00;;;0.70;91.80;;;;;;5052601;28;20025;-84
2020/12/29 02:41:30;;;;;;;165.48;52.72;;;0.60;91.80;;;;;;5053859;28;20048;-83
2020/12/29 02:43:56;;;;;;;168.43;51.30;;;0.60;92.00;;;;;;5053860;28;20029;-84
2020/12/29 02:46:21;;;;;;;156.23;49.25;;;0.60;92.30;;;;;;5052453;28;20552;-83
2020/12/29 02:48:47;;;;;;;162.27;49.00;;;0.70;92.10;;;;;;5053795;28;20029;-82
2020/12/29 02:51:16;;;;;;;174.32;50.58;;;0.70;92.10;;;;;;5052460;28;20053;-84
2020/12/29 02:53:42;;;;;;;145.93;48.10;;;0.70;92.00;;;;;;5052362;28;20471;-85
2020/12/29 02:56:07;;;;;;;152.50;48.47;;;0.70;92.00;;;;;;5052204;28;20163;-83
2020/12/29 02:58:33;;;;;;;161.13;48.00;;;0.70;92.20;;;;;;5052293;28;20120;-85
2020/12/29 03:00:58;;;;;;;152.88;45.17;;;0.70;92.00;;;;;;5052246;28;20032;-83
2020/12/29 03:03:24;;;;;;;152.38;45.72;;;0.70;91.90;;;;;;5053706;28;20163;-83
2020/12/29 03:05:50;;;;;;;140.27;41.88;;;0.70;92.00;;;;;;5053885;28;20512;-83
2020/12/29 03:08:16;;;;;;;126.07;39.50;;;0.80;92.00;;;;;;5052244;28;20025;-84
2020/12/29 03:10:42;;;;;;;134.45;41.38;;;0.80;91.90;;;;;;5052107;28;20029;-84
2020/12/29 03:13:08;;;;;;;135.38;42.55;;;0.80;91.80;;;;;;5053390;28;20450;-84
2020/12/29 03:15:34;;;;;;;127.95;39.75;;;0.80;91.90;;;;;;5053453;28;20021;-83
2020/12/29 03:17:59;;;;;;;141.15;41.55;;;0.80;91.90;;;;;;5051972;28;20025;-84
2020/12/29 03:20:25;;;;;;;136.13;40.03;;;0.80;91.80;;;;;;5052201;28;20463;-84
2020/12/29 03:22:51;;;;;;;139.95;40.55;;;0.80;91.90;;;;;;5053736;28;20024;-84
2020/12/29 03:25:16;;;;;;;176.00;45.00;;;0.80;92.00;;;;;;5053775;28;20104;-84
2020/12/29 03:27:42;;;;;;;153.13;43.40;;;0.80;92.10;;;;;;5052053;28;20025;-83
2020/12/29 03:30:08;;;;;;;150.85;43.38;;;0.70;92.40;;;;;;5051814;28;20025;-88
2020/12/29 03:32:34;;;;;;;188.40;46.90;;;0.70;92.50;;;;;;5053188;28;20036;-82
2020/12/29 03:35:00;;;;;;;159.20;41.88;;;0.70;92.50;;;;;;5051979;28;20116;-83
2020/12/29 03:37:25;;;;;;;133.43;41.28;;;0.70;92.60;;;;;;5055013;28;20041;-84
2020/12/29 03:39:51;;;;;;;171.02;42.55;;;0.80;92.50;;;;;;5056895;28;20487;-84
2020/12/29 03:42:17;;;;;;;167.07;44.22;;;0.80;92.40;;;;;;5057217;28;20056;-83
2020/12/29 03:44:42;;;;;;;130.02;37.90;;;0.80;92.40;;;;;;5055649;28;20491;-83
2020/12/29 03:47:08;;;;;;;142.82;38.60;;;0.80;92.50;;;;;;5056517;28;20032;-84
2020/12/29 03:49:34;;;;;;;155.30;40.08;;;0.80;92.50;;;;;;5055327;28;20021;-83
2020/12/29 03:51:59;;;;;;;154.65;41.13;;;0.80;92.50;;;;;;5056651;28;20029;-84
2020/12/29 03:54:25;;;;;;;163.45;41.05;;;0.80;92.50;;;;;;5053045;28;20032;-86
2020/12/29 03:56:51;;;;;;;136.27;37.60;;;0.80;92.60;;;;;;5035513;28;20032;-84
2020/12/29 03:59:16;;;;;;;121.60;34.08;;;0.80;92.70;;;;;;5035599;28;20017;-83
2020/12/29 04:01:42;;;;;;;133.77;36.58;;;0.80;92.70;;;;;;5036676;28;20048;-83
2020/12/29 04:04:09;;;;;;;158.98;39.45;;;0.80;92.70;;;;;;5035456;28;20049;-84
2020/12/29 04:06:35;;;;;;;144.98;38.33;;;0.80;92.80;;;;;;5036621;28;20025;-84
2020/12/29 04:09:01;;;;;;;139.70;35.88;;;0.80;92.90;;;;;;5036457;28;20458;-83
2020/12/29 04:11:27;;;;;;;150.23;37.65;;;0.80;92.90;;;;;;5036554;28;20029;-83
2020/12/29 04:13:52;;;;;;;139.95;37.08;;;0.80;92.80;;;;;;5036359;28;20042;-84
2020/12/29 04:16:22;;;;;;;149.48;39.08;;;0.80;92.90;;;;;;5035134;28;20132;-83
2020/12/29 04:18:49;;;;;;;193.80;42.57;;;0.80;92.90;;;;;;5036330;28;20084;-84
2020/12/29 04:21:15;;;;;;;121.78;33.42;;;0.80;92.90;;;;;;5034982;28;20740;-83
2020/12/29 04:23:40;;;;;;;141.77;36.42;;;0.80;93.20;;;;;;5035119;28;20136;-87
2020/12/29 04:26:10;;;;;;;130.80;35.92;;;0.80;92.90;;;;;;5035031;28;20075;-86
2020/12/29 04:28:36;;;;;;;130.70;35.45;;;0.80;92.90;;;;;;5035166;28;20025;-84
2020/12/29 04:31:02;;;;;;;165.82;38.40;;;0.80;93.00;;;;;;5036037;28;20494;-84
2020/12/29 04:33:27;;;;;;;105.05;31.15;;;0.80;93.00;;;;;;5047502;28;20053;-79
2020/12/29 04:35:53;;;;;;;176.55;40.00;;;0.80;93.10;;;;;;5055559;28;20048;-81
2020/12/29 04:38:19;;;;;;;142.23;39.38;;;0.80;93.00;;;;;;5055475;28;20041;-82
2020/12/29 04:40:44;;;;;;;124.75;35.45;;;0.80;93.20;;;;;;5054525;28;20044;-81
2020/12/29 04:43:10;;;;;;;154.80;39.28;;;0.80;93.20;;;;;;5055833;28;20025;-82
2020/12/29 04:45:36;;;;;;;127.28;36.90;;;0.80;93.10;;;;;;5055707;28;20017;-79
2020/12/29 04:48:02;;;;;;;135.90;38.13;;;0.80;93.00;;;;;;5055139;28;20495;-82
2020/12/29 04:50:30;;;;;;;122.50;36.03;;;0.90;93.10;;;;;;5054210;28;20059;-79
2020/12/29 04:52:58;;;;;;;131.95;35.45;;;0.90;93.10;;;;;;5054852;28;20017;-79
2020/12/29 04:55:30;;;;;;;116.63;35.35;;;0.90;93.00;;;;;;5054717;28;20060;-79
2020/12/29 04:57:59;;;;;;;116.90;35.20;;;0.90;93.00;;;;;;5054627;28;20020;-82
2020/12/29 05:00:26;;;;;;;123.57;34.00;;;0.90;93.00;;;;;;5053841;28;20017;-83
2020/12/29 05:02:53;;;;;;;128.77;34.22;;;0.90;92.90;;;;;;5055022;28;20017;-82
2020/12/29 05:05:21;;;;;;;147.38;38.03;;;0.90;92.90;;;;;;5053978;28;20453;-82
2020/12/29 05:07:47;;;;;;;125.10;33.20;;;0.90;92.90;;;;;;5053805;28;20120;-80
2020/12/29 05:10:13;;;;;;;127.10;35.42;;;0.90;92.80;;;;;;5055423;28;20021;-80
2020/12/29 05:12:52;;;;;;;135.00;35.35;;;0.90;92.90;;;;;;5053813;28;20050;-80
2020/12/29 05:15:20;;;;;;;136.57;35.40;;;0.90;92.90;;;;;;5053766;28;20028;-81
2020/12/29 05:17:46;;;;;;;128.30;35.88;;;0.90;93.00;;;;;;5053754;28;20021;-80
2020/12/29 05:20:12;;;;;;;139.60;37.30;;;0.90;93.00;;;;;;5055060;28;20083;-80
2020/12/29 05:22:38;;;;;;;155.68;40.83;;;0.90;93.00;;;;;;5053953;28;20020;-83
2020/12/29 05:25:05;;;;;;;149.05;41.25;;;1.00;92.90;;;;;;5055213;28;20100;-81
2020/12/29 05:27:36;;;;;;;131.68;39.10;;;1.00;92.90;;;;;;5054684;28;20024;-80
2020/12/29 05:30:03;;;;;;;;;;;1.00;92.90;;;;;;5054042;28;20024;-80
2020/12/29 05:32:29;;;;;;;136.75;39.90;;;1.00;92.80;;;;;;5054905;28;19905;-80
2020/12/29 05:34:58;;;;;;;154.35;41.10;;;1.00;92.90;;;;;;5054422;28;20147;-83
2020/12/29 05:37:25;;;;;;;120.88;36.22;;;1.00;92.80;;;;;;5043867;28;20118;-81
2020/12/29 05:39:51;;;;;;;125.75;40.92;;;1.00;92.80;;;;;;5034620;28;20124;-80
2020/12/29 05:42:24;;;;;;;149.45;43.28;;;1.00;92.90;;;;;;5034760;28;20483;-84
2020/12/29 05:44:52;;;;;;;113.10;34.60;;;1.10;92.70;;;;;;5034779;28;20021;-85
2020/12/29 05:47:20;;;;;;;138.60;41.65;;;1.10;92.70;;;;;;5033591;28;20032;-85
2020/12/29 05:49:46;;;;;;;123.32;36.15;;;1.10;92.50;;;;;;5033984;28;20029;-86
2020/12/29 05:52:12;;;;;;;111.72;33.92;;;1.10;92.50;;;;;;5033884;28;20087;-86
2020/12/29 05:54:40;;;;;;;123.80;36.63;;;1.20;92.50;;;;;;5034915;28;20031;-86
2020/12/29 05:57:06;;;;;;;109.97;34.17;;;1.20;92.40;;;;;;5034083;28;20029;-85
2020/12/29 05:59:33;;;;;;;114.05;35.53;;;1.20;92.30;;;;;;5034335;28;20061;-86
2020/12/29 06:01:59;;;;;;;111.32;35.25;;;1.20;92.30;;;;;;5033726;28;20029;-87
2020/12/29 06:04:26;;;;;;;102.90;35.70;;;1.10;92.30;;;;;;5034668;28;20455;-85
2020/12/29 06:06:57;;;;;;;118.78;36.25;;;1.20;92.60;;;;;;5034645;28;20036;-86
2020/12/29 06:09:22;;;;;;;123.00;36.67;;;1.10;92.40;;;;;;5034336;28;20025;-85
2020/12/29 06:11:48;;;;;;;114.70;35.20;;;1.10;92.50;;;;;;5033326;28;20029;-85
2020/12/29 06:14:25;;;;;;;98.28;32.13;;;1.10;92.60;;;;;;5034339;28;20459;-85
2020/12/29 06:16:53;;;;;;;123.53;35.28;;;1.10;92.60;;;;;;5033419;28;20387;-87
2020/12/29 06:19:20;;;;;;;120.25;36.80;;;1.10;92.60;;;;;;5033087;28;20490;-85
2020/12/29 06:22:10;;;;;;;104.95;32.90;;;1.10;92.60;;;;;;5033288;28;20112;-86
2020/12/29 06:24:41;;;;;;;89.43;31.43;;;1.20;92.50;;;;;;5033360;28;20025;-88
2020/12/29 06:27:09;;;;;;;110.20;34.65;;;1.20;92.50;;;;;;5034127;28;20262;-86
2020/12/29 06:29:37;;;;;;;106.50;34.95;;;1.20;92.50;;;;;;5034179;28;20060;-86
2020/12/29 06:32:17;;;;;;;133.50;38.33;;;1.10;92.50;;;;;;5032913;28;20030;-88
2020/12/29 06:34:44;;;;;;;121.45;33.92;;;1.10;92.60;;;;;;5032866;28;20025;-81
2020/12/29 06:37:58;;;;;;;102.45;33.40;;;1.10;92.80;;;;;;5034219;28;20045;-87
2020/12/29 06:40:26;;;;;;;124.55;36.63;;;1.10;92.80;;;;;;5033811;28;20042;-87
2020/12/29 06:42:53;;;;;;;118.47;37.00;;;1.10;92.80;;;;;;5032920;28;20108;-86
2020/12/29 06:45:18;;;;;;;119.75;38.10;;;1.10;92.90;;;;;;5033846;28;20033;-87
2020/12/29 06:47:46;;;;;;;133.57;38.47;;;1.10;92.90;;;;;;5034588;28;20026;-88
2020/12/29 06:50:32;;;;;;;142.52;41.42;;;1.10;93.20;;;;;;5033052;28;20030;-85
2020/12/29 06:53:02;;;;;;;146.77;41.33;;;1.10;93.00;;;;;;5049746;28;20029;-85
2020/12/29 06:55:39;;;;;;;154.30;42.35;;;1.10;93.00;;;;;;5032796;28;20029;-89
2020/12/29 06:58:06;;;;;;;124.82;36.28;;;1.10;93.00;;;;;;5032788;28;20450;-87
2020/12/29 07:00:35;;;;;;;150.05;41.25;;;1.10;93.10;;;;;;5033864;28;20044;-86
2020/12/29 07:03:01;;;;;;;152.30;41.72;;;1.10;93.10;;;;;;5033857;28;20014;-86
2020/12/29 07:05:28;;;;;;;183.85;43.88;;;1.10;93.10;;;;;;5032918;28;20056;-88
2020/12/29 07:07:57;;;;;;;166.05;42.13;;;1.10;93.20;;;;;;5033028;28;20439;-88
2020/12/29 07:10:37;;;;;;;154.85;39.10;;;1.10;93.30;;;;;;5036147;28;20029;-86
2020/12/29 07:13:10;;;;;;;171.93;44.88;;;1.10;93.20;;;;;;5038883;28;20109;-87
2020/12/29 07:15:53;;;;;;;136.15;41.33;;;1.20;93.20;;;;;;5037067;28;20557;-85
2020/12/29 07:18:23;;;;;;;142.32;40.17;;;1.20;93.20;;;;;;5037070;28;20111;-87
2020/12/29 07:20:52;;;;;;;169.15;44.55;;;1.20;93.10;;;;;;5037820;28;20044;-89
2020/12/29 07:23:19;;;;;;;167.93;45.67;;;1.20;93.10;;;;;;5037739;28;20100;-88
2020/12/29 07:25:49;;;;;;;166.60;47.30;;;1.20;93.20;;;;;;5036622;28;20104;-87
2020/12/29 07:28:17;;;;;;;153.05;43.38;;;1.20;93.10;;;;;;5036444;28;20029;-86
2020/12/29 07:30:43;;;;;;;145.80;41.17;;;1.20;93.10;;;;;;5036247;28;20120;-87
2020/12/29 07:33:09;;;;;;;177.85;46.47;;;1.30;93.10;;;;;;5036380;28;20116;-85
2020/12/29 07:35:37;;;;;;;157.05;41.88;;;1.30;93.00;;;;;;5037813;28;20033;-86
2020/12/29 07:38:13;;;;;;;154.52;42.17;;;1.30;93.00;;;;;;5036189;28;20034;-86
2020/12/29 07:40:39;;;;;;;171.23;46.50;;;1.30;93.00;;;;;;5037808;28;20071;-88
2020/12/29 07:43:05;;;;;;;161.10;43.35;;;1.30;93.10;;;;;;5036256;28;20021;-87
2020/12/29 07:45:32;;;;;;;164.13;45.58;;;1.30;93.10;;;;;;5037366;28;20018;-86
2020/12/29 07:48:02;;;;;;;143.43;42.85;;;1.30;93.00;;;;;;5037170;28;20498;-88
2020/12/29 07:50:28;;;;;;;171.13;44.67;;;1.30;93.00;;;;;;5035999;28;20029;-88
2020/12/29 07:53:11;;;;;;;160.95;46.05;;;1.30;93.00;;;;;;5037290;28;20113;-87
2020/12/29 07:55:41;;;;;;;173.88;44.28;;;1.40;93.00;;;;;;5037070;28;20383;-88
2020/12/29 07:58:08;;;;;;;174.00;45.13;;;1.40;93.10;;;;;;5036192;28;20052;-88
2020/12/29 08:00:35;;;;;;;161.73;43.85;;;1.40;93.10;;;;;;5035619;28;20032;-85
2020/12/29 08:03:01;;;;;;;165.18;44.78;;;1.40;93.00;;;;;;5036854;28;20048;-86
2020/12/29 08:05:28;;;;;;;174.98;46.85;;;1.40;93.00;;;;;;5035672;28;20471;-88
2020/12/29 08:08:05;;;;;;;151.85;42.50;;;1.30;93.00;;;;;;5035654;28;20033;-86
2020/12/29 08:10:33;;;;;;;151.02;40.50;;;1.40;93.10;;;;;;5036792;28;20036;-87
2020/12/29 08:13:07;;;;;;;164.48;44.70;;;1.40;93.10;;;;;;5035551;28;20049;-87
2020/12/29 08:15:38;;;;;;;179.02;46.90;;;1.40;93.10;;;;;;5036941;28;20029;-87
2020/12/29 08:18:11;;;;;;;234.23;51.47;;;1.40;93.00;;;;;;5035505;28;20048;-87
2020/12/29 08:20:54;;;;;;;180.98;46.08;;;1.40;93.10;;;;;;5036602;28;20367;-87
2020/12/29 08:23:21;;;;;;;180.57;45.97;;;1.40;93.10;;;;;;5035316;28;20025;-87
2020/12/29 08:25:55;;;;;;;161.43;44.22;;;1.50;93.10;;;;;;5036701;28;20068;-87
2020/12/29 08:28:41;;;;;;;180.10;45.55;;;1.50;93.10;;;;;;5035570;28;20379;-86
2020/12/29 08:31:07;;;;;;;152.65;42.42;;;1.50;93.40;;;;;;5035664;28;20053;-87
2020/12/29 08:33:34;;;;;;;177.93;49.53;;;1.60;93.10;;;;;;5035325;28;20060;-86
2020/12/29 08:36:02;;;;;;;188.38;48.55;;;1.60;93.00;;;;;;5036235;28;20041;-87
2020/12/29 08:38:31;;;;;;;177.07;49.20;;;1.60;93.00;;;;;;5035194;28;20029;-86
2020/12/29 08:41:26;;;;;;;201.15;50.55;;;1.60;93.00;;;;;;5035351;28;20437;-87
2020/12/29 08:43:53;;;;;;;181.13;49.40;;;1.60;93.00;;;;;;5035053;28;20061;-89
2020/12/29 08:46:24;;;;;;;186.45;48.95;;;1.60;93.00;;;;;;5035159;28;20022;-87
2020/12/29 08:48:57;;;;;;;172.88;47.90;;;1.70;93.00;;;;;;5035361;28;20025;-85
2020/12/29 08:51:27;;;;;;;213.98;52.15;;;1.70;92.90;;;;;;5036421;28;20045;-87
2020/12/29 08:54:05;;;;;;;151.90;45.97;;;1.70;92.90;;;;;;5036178;28;20029;-89
2020/12/29 08:56:30;;;;;;;199.80;52.35;;;1.70;92.80;;;;;;5034887;28;20029;-84
2020/12/29 08:58:56;;;;;;;175.05;48.97;;;1.80;92.80;;;;;;5035812;28;20387;-88
2020/12/29 09:01:40;;;;;;;175.38;47.38;;;1.70;92.90;;;;;;5034540;28;20467;-88
2020/12/29 09:04:32;;;;;;;181.07;52.28;;;1.70;92.90;;;;;;5035883;28;20030;-88
2020/12/29 09:07:05;;;;;;;167.73;47.03;;;1.70;93.00;;;;;;5036153;28;20013;-86
2020/12/29 09:09:34;;;;;;;163.73;46.97;;;1.70;93.10;;;;;;5035792;28;20053;-87
2020/12/29 09:12:40;;;;;;;177.95;49.97;;;1.80;93.10;;;;;;5034670;28;20029;-87
2020/12/29 09:15:11;;;;;;;148.45;45.30;;;1.80;93.00;;;;;;5035892;28;20021;-86
2020/12/29 09:17:44;;;;;;;195.32;54.58;;;1.80;93.00;;;;;;5034691;28;20037;-87
2020/12/29 09:20:16;;;;;;;175.13;50.60;;;1.80;93.00;;;;;;5035544;28;20096;-87
2020/12/29 09:22:51;;;;;;;183.70;53.95;;;1.90;93.30;;;;;;5035580;28;20052;-87
2020/12/29 09:25:29;;;;;;;208.68;53.85;;;1.90;93.00;;;;;;5035496;28;20025;-86
2020/12/29 09:28:14;;;;;;;166.30;49.50;;;1.90;92.90;;;;;;5034345;28;20035;-87
2020/12/29 09:31:05;;;;;;;188.77;51.28;;;1.80;93.00;;;;;;5035336;28;20440;-87
2020/12/29 09:33:32;;;;;;;181.13;49.50;;;1.90;93.00;;;;;;5034686;28;20045;-92
2020/12/29 09:36:02;;;;;;;224.40;54.45;;;1.80;93.20;;;;;;5033822;28;20049;-87
2020/12/29 09:38:28;;;;;;;156.10;46.07;;;1.90;93.20;;;;;;5034134;28;20390;-84
2020/12/29 09:40:54;;;;;;;182.57;49.30;;;1.80;93.20;;;;;;5035403;28;20018;-89
2020/12/29 09:43:21;;;;;;;172.32;45.65;;;1.90;93.20;;;;;;5033979;28;20046;-85
2020/12/29 09:45:48;;;;;;;186.15;49.13;;;1.90;93.20;;;;;;5035021;28;20132;-85
2020/12/29 09:48:15;;;;;;;163.68;44.40;;;1.90;93.20;;;;;;5034321;28;20060;-85
2020/12/29 09:50:41;;;;;;;186.98;48.45;;;2.00;93.20;;;;;;5034769;28;20033;-86
2020/12/29 09:53:08;;;;;;;163.30;43.55;;;2.00;93.10;;;;;;5033753;28;20124;-85
2020/12/29 09:55:33;;;;;;;155.70;44.28;;;1.90;93.20;;;;;;5033558;28;20450;-83
2020/12/29 09:57:59;;;;;;;174.98;45.60;;;2.00;93.20;;;;;;5033418;28;20025;-83
2020/12/29 10:00:25;;;;;;;163.45;43.53;;;2.00;93.20;;;;;;5033930;28;20051;-92
2020/12/29 10:02:51;;;;;;;146.60;41.22;;;2.00;93.20;;;;;;5033954;28;20025;-86
2020/12/29 10:05:17;;;;;;;146.85;43.20;;;2.00;93.20;;;;;;5033652;28;20029;-87
2020/12/29 10:07:50;;;;;;;155.00;47.08;;;2.10;93.10;;;;;;5034852;28;20036;-82
2020/12/29 10:10:16;;;;;;;169.73;48.05;;;2.10;93.10;;;;;;5033498;28;20025;-84
2020/12/29 10:12:41;;;;;;;145.50;41.92;;;2.10;93.20;;;;;;5033423;28;20034;-87
2020/12/29 10:15:08;;;;;;;152.85;42.80;;;2.20;93.30;;;;;;5033495;28;20025;-87
2020/12/29 10:17:33;;;;;;;150.15;42.88;;;2.10;93.30;;;;;;5033310;28;20053;-85
2020/12/29 10:19:59;;;;;;;152.30;42.53;;;2.20;93.20;;;;;;5033251;28;20107;-86
2020/12/29 10:22:28;;;;;;;175.05;46.55;;;2.20;93.20;;;;;;5033467;28;20025;-84
2020/12/29 10:24:54;;;;;;;181.25;49.35;;;2.20;93.20;;;;;;5033415;28;20028;-87
2020/12/29 10:27:20;;;;;;;139.20;42.83;;;2.20;93.20;;;;;;5033077;28;20430;-86
2020/12/29 10:29:47;;;;;;;181.45;47.65;;;2.20;93.10;;;;;;5034564;28;20025;-87
2020/12/29 10:32:12;;;;;;;137.32;40.85;;;2.20;93.20;;;;;;5032995;28;20033;-83
2020/12/29 10:34:38;;;;;;;153.65;44.78;;;2.10;93.30;;;;;;5034336;28;20026;-87
2020/12/29 10:37:04;;;;;;;140.52;42.08;;;2.20;93.20;;;;;;5032814;28;20121;-88
2020/12/29 10:39:30;;;;;;;127.72;39.65;;;2.20;93.30;;;;;;5034198;28;20467;-86
2020/12/29 10:41:55;;;;;;;152.32;44.17;;;2.20;93.10;;;;;;5033016;28;20376;-86
2020/12/29 10:44:21;;;;;;;140.55;40.40;;;2.20;93.00;;;;;;5033894;28;20025;-87
2020/12/29 10:46:47;;;;;;;144.18;43.28;;;2.30;93.10;;;;;;5032895;28;20387;-87
2020/12/29 10:49:14;;;;;;;138.25;43.25;;;2.30;93.00;;;;;;5033414;28;20029;-87
2020/12/29 10:51:40;;;;;;;140.35;43.33;;;2.30;93.00;;;;;;5034270;28;20025;-88
2020/12/29 10:54:06;;;;;;;121.93;40.58;;;2.30;93.20;;;;;;5033109;28;20359;-87
2020/12/29 10:56:32;;;;;;;132.60;41.47;;;2.40;93.20;;;;;;5034114;28;20037;-87
2020/12/29 10:58:58;;;;;;;129.98;40.22;;;2.40;93.20;;;;;;5033004;28;20056;-87
2020/12/29 11:01:24;;;;;;;110.43;39.95;;;2.50;93.20;;;;;;5034560;28;20052;-86
2020/12/29 11:03:51;;;;;;;127.72;41.65;;;2.50;93.20;;;;;;5034550;28;20026;-86
2020/12/29 11:06:21;;;;;;;124.90;43.53;;;2.60;93.20;;;;;;5033119;28;20025;-88
2020/12/29 11:08:48;;;;;;;107.95;40.30;;;2.60;93.20;;;;;;5032865;28;20430;-86
2020/12/29 11:11:15;;;;;;;100.50;36.80;;;2.70;93.20;;;;;;5032810;28;20152;-88
2020/12/29 11:13:41;;;;;;;95.32;35.17;;;2.70;93.10;;;;;;5032838;28;20021;-88
2020/12/29 11:16:18;;;;;;;93.05;37.15;;;2.80;93.00;;;;;;5033863;28;20032;-87
2020/12/29 11:18:45;;;;;;;127.85;44.95;;;2.80;93.00;;;;;;5032576;28;20025;-85
2020/12/29 11:21:11;;;;;;;103.28;38.92;;;2.80;93.00;;;;;;5032815;28;20017;-88
2020/12/29 11:23:37;;;;;;;111.25;40.38;;;2.80;93.00;;;;;;5032730;28;20017;-87
2020/12/29 11:26:04;;;;;;;130.52;44.80;;;2.80;93.00;;;;;;5034151;28;20022;-87
2020/12/29 11:28:30;;;;;;;124.55;43.78;;;2.80;93.10;;;;;;5032380;28;20025;-88
2020/12/29 11:30:55;;;;;;;116.07;42.30;;;2.80;93.10;;;;;;5032678;28;20025;-86
2020/12/29 11:33:21;;;;;;;105.47;39.88;;;2.80;93.10;;;;;;5034012;28;20037;-87
2020/12/29 11:35:48;;;;;;;104.28;37.70;;;2.90;93.10;;;;;;5032254;28;20025;-88
2020/12/29 11:38:21;;;;;;;105.18;41.08;;;2.90;93.10;;;;;;5032513;28;20041;-89
2020/12/29 11:40:47;;;;;;;104.80;39.85;;;2.90;93.10;;;;;;5033598;28;20017;-85
2020/12/29 11:43:13;;;;;;;110.13;40.85;;;3.00;93.10;;;;;;5032470;28;20021;-88
2020/12/29 11:45:41;;;;;;;108.82;38.33;;;3.00;93.10;;;;;;5032796;28;20032;-87
2020/12/29 11:48:07;;;;;;;122.75;44.35;;;3.10;93.10;;;;;;5032437;28;20080;-85
2020/12/29 11:50:33;;;;;;;121.40;45.45;;;3.10;93.30;;;;;;5032341;28;20379;-86
2020/12/29 11:52:59;;;;;;;116.70;42.75;;;3.10;93.40;;;;;;5032317;28;20120;-87
2020/12/29 11:55:24;;;;;;;124.22;43.67;;;3.10;93.50;;;;;;5032242;28;20467;-86
2020/12/29 11:57:50;;;;;;;110.28;42.05;;;3.20;93.70;;;;;;5035079;28;20033;-87
2020/12/29 12:00:17;;;;;;;111.22;39.13;;;3.30;93.80;;;;;;5035916;28;20021;-86
2020/12/29 12:02:43;;;;;;;126.18;45.13;;;3.30;93.70;;;;;;5036159;28;20471;-87
2020/12/29 12:05:09;;;;;;;105.47;38.50;;;3.40;93.70;;;;;;5036053;28;20035;-89
2020/12/29 12:07:34;;;;;;;136.90;49.08;;;3.40;93.50;;;;;;5036022;28;20029;-88
2020/12/29 12:10:02;;;;;;;133.18;48.67;;;3.40;93.60;;;;;;5035977;28;20482;-88
2020/12/29 12:12:28;;;;;;;117.38;44.97;;;3.40;93.70;;;;;;5035780;28;20032;-88
2020/12/29 12:14:53;;;;;;;113.97;43.17;;;3.50;93.90;;;;;;5035729;28;20379;-87
2020/12/29 12:17:19;;;;;;;130.13;47.78;;;3.50;93.80;;;;;;5035915;28;20107;-85
2020/12/29 12:19:45;;;;;;;114.03;43.65;;;3.60;93.90;;;;;;5038518;28;20018;-88
2020/12/29 12:22:10;;;;;;;109.18;42.67;;;3.60;93.90;;;;;;5035715;28;20067;-89
2020/12/29 12:24:36;;;;;;;121.82;44.10;;;3.70;93.90;;;;;;5035508;28;20021;-88
2020/12/29 12:27:02;;;;;;;113.97;44.13;;;3.70;93.80;;;;;;5035697;28;20022;-87
2020/12/29 12:29:27;;;;;;;123.45;44.75;;;3.70;93.70;;;;;;5036027;28;20017;-90
2020/12/29 12:31:53;;;;;;;104.22;42.08;;;3.80;93.80;;;;;;5035662;28;20116;-88
2020/12/29 12:34:20;;;;;;;104.43;42.55;;;3.80;93.70;;;;;;5035491;28;20087;-89